0J4

Florala Municipal Airport

Florala, Alabama, USA
METAR K0J4 201758Z AUTO VRB05KT 10SM CLR 21/06 A3024 RMK AO2 SLP238 T02060061 10206 20078 $
Observed Flight Rules
Apr-20 @ 17:58 UTC (41 minutes ago) Visual Flight Rules
Wind Visibility Clouds
Variable at 5 knots 10 miles
  • Clear skies
Temperatures Readings
Current 21°C / 70°F
Dewpoint 6°C / 43°F
Humidity 38%
Altimeter 30.24" Hg
Pressure 1023.8 hPa
Elevation 96
METAR K0J4 201758Z AUTO VRB05KT 10SM CLR 21/06 A3024 RMK AO2 SLP238 T02060061 10206 20078 $
Observed Flight Rules
Apr-20 @ 17:58 UTC
(41 minutes ago)
VFR
Wind Visibility
Variable at 5 knots 10 miles
Clouds
  • Clear skies
Temperature Dewpoint
21°C / 70°F 6°C / 43°F
Humidity Altimeter Pressure
38% 30.24" Hg 1023.8 hPa